Adak, AK

11:02 AM HAST on December 18, 2014 (GMT -1000)
Adak | Change Station
CLOSE
Current Station
Airport
Location: Adak,
Elevation: 13 ft
Nearby Weather Stations

Elev 13 ft 51.88 °N, 176.65 °W | Updated 6 minutes ago

Overcast
Overcast
36 °F
Feels Like 23 °F
N
28
Wind Variable Wind from ENE

Today
High -- | Low -- °F
--% Chance of Precip.
Yesterday
High -- | Low -- °F
Precip. -- in
9:50 AM 5:36 PM
Waning Crescent, 12% visible
Pressure 28.85 in
Visibility 2.5 miles
Clouds Overcast 600 ft
Windchill 23 °F
Dew Point 32 °F
Humidity 87%
Rainfall 0.14 in
Snow Depth Not available.
UV 0 out of 12
Pollen Not available.
Air Quality Not available.
Flu Activity Not available.
METAR PADK 182056Z AUTO 07024KT 2 1/2SM OVC006 02/00 A2885 RMK AO1 P0002

More Conditions Fewer Conditions

Pressure 28.85 in
Visibility 2.5 miles
Clouds Overcast 600 ft
Windchill 23 °F
Dew Point 32 °F
Humidity 87%
Rainfall 0.14 in
Snow Depth Not available.
UV 0 out of 12
Pollen Not available.
Air Quality Not available.
Flu Activity Not available.
METAR PADK 182056Z AUTO 07024KT 2 1/2SM OVC006 02/00 A2885 RMK AO1 P0002

More Conditions Fewer Conditions

10-Day Weather Forecast

Almanac

Astronomy

Dec. 18, 2014 Rise Set
Actual Time
Civil Twilight
Nautical Twilight
Astronomical Twilight
Moon
Length of Visible Light
Length of Day
Tomorrow will be .
, % of the Moon is Illuminated

Today's Extremes

State Highs State Lows

Community

WunderPhotos

Upload Photos

1,778,997 photos uploaded!

WunderBlogs® & News

Nearby

Air Quality

  Air Quality AQ Index Pollutant
Not available.

Snow Depth

Station Depth Elevation

Earthquake Activity

City Distance Mag. Time & Date
Minimum magnitude displayed is 2.5.

Coastal Water Temperatures

Place Temperature

Nearby Weather Stations